createdAt,value
2019-01-13T00:00:32.174Z,7.23
2019-01-13T00:03:09.434Z,8.20
2019-01-13T00:05:42.414Z,6.43
2019-01-13T00:08:15.062Z,7.43
2019-01-13T00:10:46.693Z,8.13
2019-01-13T00:13:18.350Z,7.30
2019-01-13T00:15:51.115Z,7.93
2019-01-13T00:18:23.362Z,11.83
2019-01-13T00:20:56.633Z,10.87
2019-01-13T00:23:31.010Z,8.60
2019-01-13T00:26:03.030Z,8.50
2019-01-13T00:28:34.464Z,9.73
2019-01-13T00:31:07.507Z,9.50
2019-01-13T00:33:40.031Z,9.77
2019-01-13T00:36:12.946Z,8.03
2019-01-13T00:38:45.548Z,12.07
2019-01-13T00:41:18.673Z,8.93
2019-01-13T00:43:51.305Z,8.43
2019-01-13T00:46:24.474Z,8.70
2019-01-13T00:48:57.197Z,8.93
2019-01-13T00:51:30.312Z,9.40
2019-01-13T00:54:02.121Z,8.97
2019-01-13T00:56:33.393Z,11.30
2019-01-13T00:59:06.905Z,6.90
2019-01-13T01:01:38.951Z,9.03
2019-01-13T01:04:12.381Z,6.87
2019-01-13T01:06:44.148Z,7.83
2019-01-13T01:09:16.202Z,6.67
2019-01-13T01:11:49.832Z,8.13
2019-01-13T01:14:23.364Z,7.67
2019-01-13T01:16:55.210Z,7.27
2019-01-13T01:19:28.312Z,6.00
2019-01-13T01:22:00.547Z,8.63
2019-01-13T01:24:33.469Z,6.90
2019-01-13T01:27:06.197Z,9.03
2019-01-13T01:29:38.497Z,8.00
2019-01-13T01:32:09.693Z,9.27
2019-01-13T01:34:41.353Z,9.67
2019-01-13T01:37:12.719Z,8.17
2019-01-13T01:39:46.025Z,9.20
2019-01-13T01:42:17.518Z,8.50
2019-01-13T01:44:51.229Z,11.70
2019-01-13T01:47:23.215Z,9.07
2019-01-13T01:49:56.146Z,12.03
2019-01-13T01:52:29.125Z,9.40
2019-01-13T01:55:02.192Z,8.67
2019-01-13T01:57:33.519Z,7.00
2019-01-13T02:00:10.008Z,7.13
2019-01-13T02:02:44.137Z,10.23
2019-01-13T02:05:17.718Z,7.50
2019-01-13T02:07:49.891Z,10.47
2019-01-13T02:10:22.611Z,10.87
2019-01-13T02:12:54.751Z,6.93
2019-01-13T02:15:28.547Z,9.17
2019-01-13T02:18:00.157Z,6.43
2019-01-13T02:20:31.681Z,7.30
2019-01-13T02:23:04.770Z,7.57
2019-01-13T02:25:36.830Z,6.77
2019-01-13T02:28:08.220Z,6.17
2019-01-13T02:30:39.405Z,5.17
2019-01-13T02:33:10.944Z,7.90
2019-01-13T02:35:42.543Z,7.37
2019-01-13T02:38:14.412Z,7.13
2019-01-13T02:40:47.548Z,5.73
2019-01-13T02:43:19.402Z,5.33
2019-01-13T02:45:52.575Z,8.53
2019-01-13T02:48:25.609Z,5.53
2019-01-13T02:50:57.194Z,4.23
2019-01-13T02:53:28.595Z,4.57
2019-01-13T02:55:59.778Z,3.70
2019-01-13T02:58:32.187Z,5.07
2019-01-13T03:01:06.360Z,5.97
2019-01-13T03:03:38.742Z,4.27
2019-01-13T03:06:10.888Z,3.70
2019-01-13T03:08:44.077Z,5.47
2019-01-13T03:11:17.025Z,3.90
2019-01-13T03:13:48.526Z,4.83
2019-01-13T03:16:21.502Z,3.13
2019-01-13T03:18:53.033Z,4.80
2019-01-13T03:21:25.524Z,4.83
2019-01-13T03:23:57.065Z,5.13
2019-01-13T03:26:30.077Z,3.47
2019-01-13T03:29:01.630Z,2.43
2019-01-13T03:31:33.101Z,3.73
2019-01-13T03:34:04.841Z,3.43
2019-01-13T03:36:36.088Z,4.27
2019-01-13T03:39:09.269Z,2.70
2019-01-13T03:41:42.391Z,3.83
2019-01-13T03:44:20.881Z,2.03
2019-01-13T03:46:54.056Z,2.93
2019-01-13T03:49:25.879Z,2.87
2019-01-13T03:51:57.962Z,4.70
2019-01-13T03:54:35.287Z,3.23
2019-01-13T03:57:07.140Z,3.27
2019-01-13T03:59:39.386Z,3.30
2019-01-13T04:02:11.137Z,3.53
2019-01-13T04:04:42.845Z,3.80
2019-01-13T04:07:14.189Z,2.20
2019-01-13T04:09:46.093Z,4.17
2019-01-13T04:12:17.820Z,5.40
2019-01-13T04:14:49.371Z,2.50
2019-01-13T04:17:22.278Z,3.43
2019-01-13T04:19:54.112Z,2.57
2019-01-13T04:22:25.895Z,3.63
2019-01-13T04:24:58.302Z,3.93
2019-01-13T04:27:29.836Z,4.03
2019-01-13T04:30:02.033Z,2.50
2019-01-13T04:32:34.562Z,3.83
2019-01-13T04:35:07.046Z,3.50
2019-01-13T04:37:38.948Z,2.17
2019-01-13T04:40:12.052Z,4.07
2019-01-13T04:42:45.740Z,2.97
2019-01-13T04:45:17.370Z,3.37
2019-01-13T04:47:48.743Z,3.77
2019-01-13T04:50:20.474Z,3.37
2019-01-13T04:52:51.969Z,2.57
2019-01-13T04:55:23.993Z,4.00
2019-01-13T04:57:56.004Z,5.37
2019-01-13T05:00:27.523Z,4.03
2019-01-13T05:03:00.833Z,3.70
2019-01-13T05:05:32.230Z,3.40
2019-01-13T05:08:06.259Z,1.83
2019-01-13T05:10:39.376Z,1.83
2019-01-13T05:13:12.508Z,2.00
2019-01-13T05:15:44.397Z,1.77
2019-01-13T05:18:17.723Z,1.47
2019-01-13T05:20:51.125Z,1.87
2019-01-13T05:23:24.105Z,2.50
2019-01-13T05:25:55.499Z,1.37
2019-01-13T05:28:27.469Z,1.27
2019-01-13T05:30:59.911Z,1.60
2019-01-13T05:33:31.726Z,3.20
2019-01-13T05:36:05.008Z,3.73
2019-01-13T05:38:39.869Z,4.33
2019-01-13T05:41:12.024Z,3.93
2019-01-13T05:43:44.748Z,4.23
2019-01-13T05:46:16.730Z,5.03
2019-01-13T05:48:49.810Z,4.60
2019-01-13T05:51:22.886Z,4.73
2019-01-13T05:53:54.468Z,3.30
2019-01-13T05:56:26.443Z,2.80
2019-01-13T05:58:58.022Z,2.90
2019-01-13T06:01:31.482Z,3.20
2019-01-13T06:04:03.330Z,4.80
2019-01-13T06:06:34.731Z,2.47
2019-01-13T06:09:07.996Z,4.60
2019-01-13T06:11:39.455Z,2.60
2019-01-13T06:14:11.713Z,3.47
2019-01-13T06:16:44.803Z,5.37
2019-01-13T06:19:17.884Z,4.23
2019-01-13T06:21:51.389Z,4.00
2019-01-13T06:24:24.868Z,2.97
2019-01-13T06:26:57.945Z,3.23
2019-01-13T06:29:30.838Z,3.33
2019-01-13T06:32:02.514Z,3.53
2019-01-13T06:34:35.770Z,3.67
2019-01-13T06:37:07.163Z,2.70
2019-01-13T06:39:39.216Z,2.40
2019-01-13T06:42:10.740Z,4.47
2019-01-13T06:44:47.585Z,3.63
2019-01-13T06:47:18.937Z,4.90
2019-01-13T06:49:50.368Z,4.23
2019-01-13T06:52:21.961Z,4.43
2019-01-13T06:55:00.313Z,3.50
2019-01-13T06:57:32.190Z,4.97
2019-01-13T07:00:08.224Z,4.27
2019-01-13T07:02:41.159Z,4.50
2019-01-13T07:05:13.011Z,5.00
2019-01-13T07:07:44.920Z,4.17
2019-01-13T07:10:18.219Z,4.57
2019-01-13T07:12:52.746Z,4.53
2019-01-13T07:15:24.138Z,5.90
2019-01-13T07:17:57.119Z,6.47
2019-01-13T07:20:30.345Z,9.97
2019-01-13T07:23:03.904Z,9.20
2019-01-13T07:25:35.300Z,7.97
2019-01-13T07:28:07.915Z,5.80
2019-01-13T07:30:40.916Z,9.07
2019-01-13T07:33:14.067Z,5.87
2019-01-13T07:35:45.639Z,6.13
2019-01-13T07:38:17.019Z,6.10
2019-01-13T07:40:49.073Z,8.00
2019-01-13T07:43:21.347Z,6.57
2019-01-13T07:45:53.884Z,6.30
2019-01-13T07:48:27.137Z,4.97
2019-01-13T07:51:00.331Z,7.87
2019-01-13T07:53:31.658Z,7.67
2019-01-13T07:56:03.818Z,8.00
2019-01-13T07:58:37.072Z,6.20
2019-01-13T08:01:08.987Z,6.83
2019-01-13T08:03:42.223Z,5.50
2019-01-13T08:06:15.821Z,6.77
2019-01-13T08:08:47.482Z,6.93
2019-01-13T08:11:18.892Z,5.00
2019-01-13T08:13:50.551Z,4.50
2019-01-13T08:16:22.256Z,5.30
2019-01-13T08:18:54.716Z,6.27
2019-01-13T08:21:27.657Z,8.57
2019-01-13T08:24:00.103Z,7.37
2019-01-13T08:26:31.602Z,6.47
2019-01-13T08:29:04.632Z,6.50
2019-01-13T08:31:36.922Z,5.27
2019-01-13T08:34:09.908Z,6.67
2019-01-13T08:36:43.170Z,4.57
2019-01-13T08:39:16.229Z,5.43
2019-01-13T08:41:48.101Z,6.50
2019-01-13T08:44:21.445Z,4.37
2019-01-13T08:46:53.650Z,6.07
2019-01-13T08:49:25.212Z,6.80
2019-01-13T08:51:58.456Z,8.57
2019-01-13T08:54:29.801Z,4.83
2019-01-13T08:57:01.249Z,6.37
2019-01-13T08:59:32.777Z,4.07
2019-01-13T09:02:04.148Z,4.63
2019-01-13T09:04:42.706Z,6.00
2019-01-13T09:07:14.039Z,3.60
2019-01-13T09:09:47.487Z,5.97
2019-01-13T09:12:18.952Z,4.53
2019-01-13T09:14:51.826Z,4.40
2019-01-13T09:17:24.828Z,3.43
2019-01-13T09:19:57.866Z,5.20
2019-01-13T09:22:29.575Z,4.20
2019-01-13T09:25:01.458Z,4.70
2019-01-13T09:27:32.970Z,3.97
2019-01-13T09:30:05.729Z,10.37
2019-01-13T09:32:39.499Z,6.20
2019-01-13T09:35:11.539Z,7.40
2019-01-13T09:37:44.062Z,9.67
2019-01-13T09:40:19.715Z,6.73
2019-01-13T09:42:55.477Z,9.97
2019-01-13T09:45:27.723Z,16.50
2019-01-13T09:48:00.890Z,7.37
2019-01-13T09:50:32.279Z,10.23
2019-01-13T09:53:05.519Z,6.50
2019-01-13T09:55:38.234Z,6.57
2019-01-13T09:58:09.686Z,6.37
2019-01-13T10:00:42.747Z,5.60
2019-01-13T10:03:15.142Z,7.17
2019-01-13T10:05:48.201Z,9.07
2019-01-13T10:08:19.847Z,5.03
2019-01-13T10:10:51.696Z,6.20
2019-01-13T10:13:23.527Z,4.27
2019-01-13T10:15:54.684Z,4.80
2019-01-13T10:18:27.708Z,6.47
2019-01-13T10:21:00.622Z,4.60
2019-01-13T10:23:38.797Z,5.23
2019-01-13T10:26:10.348Z,12.77
2019-01-13T10:28:41.736Z,13.37
2019-01-13T10:31:15.114Z,9.30
2019-01-13T10:33:46.718Z,12.97
2019-01-13T10:36:19.923Z,9.80
2019-01-13T10:38:53.352Z,10.70
2019-01-13T10:41:24.780Z,14.47
2019-01-13T10:43:57.686Z,13.03
2019-01-13T10:46:31.181Z,9.50
2019-01-13T10:49:03.061Z,9.03
2019-01-13T10:51:34.535Z,13.13
2019-01-13T10:54:09.203Z,12.67
2019-01-13T10:56:40.705Z,10.83
2019-01-13T10:59:12.657Z,7.17
2019-01-13T11:01:45.768Z,7.43
2019-01-13T11:04:18.984Z,4.87
2019-01-13T11:06:51.348Z,8.20
2019-01-13T11:09:24.334Z,7.17
2019-01-13T11:11:56.900Z,5.40
2019-01-13T11:14:28.620Z,8.97
2019-01-13T11:17:01.747Z,6.67
2019-01-13T11:19:33.699Z,8.67
2019-01-13T11:22:07.063Z,8.80
2019-01-13T11:24:38.743Z,8.67
2019-01-13T11:27:10.642Z,11.50
2019-01-13T11:29:43.900Z,7.83
2019-01-13T11:32:15.801Z,8.33
2019-01-13T11:34:47.232Z,9.00
2019-01-13T11:37:19.704Z,7.80
2019-01-13T11:39:51.438Z,10.83
2019-01-13T11:42:23.931Z,8.33
2019-01-13T11:44:55.264Z,11.23
2019-01-13T11:47:27.287Z,10.80
2019-01-13T11:50:00.404Z,9.83
2019-01-13T11:52:32.036Z,9.27
2019-01-13T11:55:03.391Z,6.87
2019-01-13T11:57:34.795Z,9.13
2019-01-13T12:00:20.441Z,7.50
2019-01-13T12:02:54.127Z,8.50
2019-01-13T12:05:25.756Z,7.87
2019-01-13T12:07:57.273Z,8.37
2019-01-13T12:10:30.455Z,9.57
2019-01-13T12:13:08.851Z,9.20
2019-01-13T12:15:40.150Z,9.33
2019-01-13T12:18:13.361Z,7.03
2019-01-13T12:20:45.175Z,8.27
2019-01-13T12:23:16.885Z,11.83
2019-01-13T12:25:52.834Z,8.60
2019-01-13T12:28:23.339Z,13.10
2019-01-13T12:30:54.867Z,10.93
2019-01-13T12:33:28.203Z,11.90
2019-01-13T12:35:59.957Z,11.40
2019-01-13T12:38:31.645Z,12.10
2019-01-13T12:41:04.825Z,9.97
2019-01-13T12:43:38.189Z,10.30
2019-01-13T12:46:09.499Z,6.60
2019-01-13T12:48:41.494Z,8.57
2019-01-13T12:51:15.053Z,7.23
2019-01-13T12:53:51.941Z,7.57
2019-01-13T12:56:24.117Z,7.40
2019-01-13T12:58:56.997Z,8.53
2019-01-13T13:01:28.659Z,7.43
2019-01-13T13:04:00.517Z,7.80
2019-01-13T13:06:31.924Z,7.90
2019-01-13T13:09:08.679Z,5.93
2019-01-13T13:11:41.770Z,6.77
2019-01-13T13:14:13.559Z,6.73
2019-01-13T13:16:46.705Z,11.00
2019-01-13T13:19:21.129Z,7.63
2019-01-13T13:21:53.523Z,8.70
2019-01-13T13:24:25.054Z,7.33
2019-01-13T13:26:57.315Z,6.90
2019-01-13T13:29:29.203Z,6.43
2019-01-13T13:32:02.287Z,6.80
2019-01-13T13:34:35.689Z,6.87
2019-01-13T13:37:08.096Z,8.80
2019-01-13T13:39:41.236Z,8.30
2019-01-13T13:42:13.139Z,7.23
2019-01-13T13:44:45.571Z,7.40
2019-01-13T13:47:17.922Z,7.63
2019-01-13T13:49:51.422Z,8.50
2019-01-13T13:52:22.658Z,6.07
2019-01-13T13:54:55.688Z,6.73
2019-01-13T13:57:28.620Z,7.33
2019-01-13T14:00:00.261Z,7.73
2019-01-13T14:02:32.350Z,8.47
2019-01-13T14:05:06.441Z,8.77
2019-01-13T14:07:38.015Z,8.80
2019-01-13T14:10:14.553Z,6.97
2019-01-13T14:12:47.801Z,8.97
2019-01-13T14:15:21.121Z,9.67
2019-01-13T14:17:54.627Z,9.27
2019-01-13T14:20:27.604Z,8.33
2019-01-13T14:23:00.927Z,11.07
2019-01-13T14:25:33.900Z,9.97
2019-01-13T14:28:06.957Z,9.07
2019-01-13T14:30:40.076Z,7.40
2019-01-13T14:33:31.332Z,6.77
2019-01-13T14:36:04.318Z,7.27
2019-01-13T14:38:36.472Z,10.30
2019-01-13T14:41:09.658Z,8.97
2019-01-13T14:43:43.438Z,7.80
2019-01-13T14:46:15.133Z,8.10
2019-01-13T14:48:48.535Z,7.63
2019-01-13T14:51:20.334Z,5.73
2019-01-13T14:53:58.711Z,5.67
2019-01-13T14:56:31.746Z,6.03
2019-01-13T14:59:05.058Z,7.03
2019-01-13T15:01:38.771Z,6.57
2019-01-13T15:04:15.720Z,10.05
2019-01-13T15:06:50.768Z,9.35
2019-01-13T15:09:24.062Z,7.53
2019-01-13T15:11:57.413Z,6.73
2019-01-13T15:14:33.036Z,5.30
2019-01-13T15:17:06.168Z,6.13
2019-01-13T15:19:37.958Z,5.17
2019-01-13T15:22:11.639Z,8.57
2019-01-13T15:24:51.061Z,6.17
2019-01-13T15:27:24.344Z,5.67
2019-01-13T15:29:58.680Z,7.30
2019-01-13T15:32:31.903Z,15.33
2019-01-13T15:35:05.677Z,8.20
2019-01-13T15:37:38.634Z,6.97
2019-01-13T15:40:14.001Z,6.03
2019-01-13T15:42:47.358Z,4.87
2019-01-13T15:45:21.538Z,6.40
2019-01-13T15:47:54.959Z,7.40
2019-01-13T15:50:29.445Z,6.17
2019-01-13T15:53:02.797Z,5.63
2019-01-13T15:55:36.018Z,4.13
2019-01-13T15:58:09.283Z,5.90
2019-01-13T16:00:42.829Z,5.80
2019-01-13T16:03:21.211Z,5.67
2019-01-13T16:05:54.885Z,4.17
2019-01-13T16:08:28.239Z,6.43
2019-01-13T16:11:01.335Z,6.03
2019-01-13T16:13:34.879Z,6.00
2019-01-13T16:16:11.315Z,7.83
2019-01-13T16:18:46.251Z,6.23
2019-01-13T16:21:19.290Z,6.57
2019-01-13T16:23:53.269Z,6.63
2019-01-13T16:26:26.610Z,7.37
2019-01-13T16:28:59.994Z,8.00
2019-01-13T16:31:33.931Z,6.43
2019-01-13T16:34:07.325Z,5.80
2019-01-13T16:36:40.695Z,6.70
2019-01-13T16:39:13.878Z,5.33
2019-01-13T16:41:47.829Z,6.03
2019-01-13T16:44:26.008Z,8.67
2019-01-13T16:46:59.410Z,8.57
2019-01-13T16:49:31.354Z,6.60
2019-01-13T16:52:04.659Z,8.93
2019-01-13T16:54:41.220Z,6.53
2019-01-13T16:57:13.518Z,6.50
2019-01-13T16:59:45.780Z,7.60
2019-01-13T17:02:18.829Z,7.07
2019-01-13T17:04:52.091Z,6.57
2019-01-13T17:07:23.709Z,7.17
2019-01-13T17:09:55.412Z,6.43
2019-01-13T17:12:29.691Z,4.63
2019-01-13T17:15:02.964Z,5.83
2019-01-13T17:17:35.514Z,8.00
2019-01-13T17:20:11.115Z,5.27
2019-01-13T17:22:45.116Z,4.00
2019-01-13T17:25:20.194Z,4.40
2019-01-13T17:27:53.819Z,5.77
2019-01-13T17:30:31.783Z,5.20
2019-01-13T17:33:03.685Z,5.23
2019-01-13T17:35:36.863Z,5.30
2019-01-13T17:38:10.071Z,4.13
2019-01-13T17:40:44.625Z,5.70
2019-01-13T17:43:17.817Z,5.00
2019-01-13T17:45:49.747Z,5.27
2019-01-13T17:48:21.564Z,5.20
2019-01-13T17:50:54.942Z,5.77
2019-01-13T17:53:27.951Z,6.60
2019-01-13T17:56:00.195Z,7.47
2019-01-13T17:58:33.344Z,7.13
2019-01-13T18:01:22.231Z,7.50
2019-01-13T18:03:55.464Z,6.77
2019-01-13T18:06:28.518Z,6.17
2019-01-13T18:09:00.237Z,8.10
2019-01-13T18:11:32.006Z,6.47
2019-01-13T18:14:04.395Z,9.47
2019-01-13T18:16:37.442Z,7.10
2019-01-13T18:19:08.956Z,7.70
2019-01-13T18:21:41.906Z,5.97
2019-01-13T18:24:15.370Z,5.93
2019-01-13T18:26:47.244Z,6.50
2019-01-13T18:29:19.235Z,4.77
2019-01-13T18:31:52.767Z,5.53
2019-01-13T18:34:24.371Z,6.73
2019-01-13T18:36:56.122Z,6.20
2019-01-13T18:39:27.638Z,5.63
2019-01-13T18:42:00.811Z,6.30
2019-01-13T18:44:34.032Z,6.53
2019-01-13T18:47:07.173Z,7.23
2019-01-13T18:49:40.157Z,5.17
2019-01-13T18:52:13.297Z,6.53
2019-01-13T18:54:46.604Z,8.10
2019-01-13T18:57:18.949Z,12.53
2019-01-13T18:59:52.109Z,5.97
2019-01-13T19:02:25.329Z,6.63
2019-01-13T19:04:58.224Z,8.13
2019-01-13T19:07:31.294Z,7.90
2019-01-13T19:10:02.726Z,7.40
2019-01-13T19:12:35.893Z,7.57
2019-01-13T19:15:10.151Z,5.30
2019-01-13T19:17:43.525Z,9.83
2019-01-13T19:20:32.077Z,7.43
2019-01-13T19:23:15.979Z,8.17
2019-01-13T19:25:49.439Z,7.57
2019-01-13T19:28:23.676Z,6.57
2019-01-13T19:30:56.266Z,6.80
2019-01-13T19:33:27.980Z,5.90
2019-01-13T19:35:59.662Z,6.23
2019-01-13T19:38:31.875Z,7.57
2019-01-13T19:41:03.908Z,7.07
2019-01-13T19:43:36.378Z,5.23
2019-01-13T19:46:08.632Z,7.57
2019-01-13T19:48:40.130Z,8.03
2019-01-13T19:51:11.750Z,8.00
2019-01-13T19:53:43.291Z,9.53
2019-01-13T19:56:14.968Z,10.20
2019-01-13T19:58:46.849Z,8.37
2019-01-13T20:01:18.236Z,9.27
2019-01-13T20:03:49.554Z,10.77
2019-01-13T20:06:21.753Z,14.47
2019-01-13T20:08:53.902Z,11.63
2019-01-13T20:11:25.449Z,9.07
2019-01-13T20:13:57.235Z,7.83
2019-01-13T20:16:29.272Z,12.93
2019-01-13T20:19:00.776Z,6.80
2019-01-13T20:21:32.318Z,7.10
2019-01-13T20:24:05.710Z,7.73
2019-01-13T20:26:37.250Z,10.40
2019-01-13T20:29:08.957Z,10.63
2019-01-13T20:31:40.696Z,6.33
2019-01-13T20:34:12.381Z,9.37
2019-01-13T20:36:45.670Z,8.00
2019-01-13T20:39:17.522Z,11.43
2019-01-13T20:41:49.422Z,7.33
2019-01-13T20:44:21.615Z,9.33
2019-01-13T20:46:53.382Z,8.60
2019-01-13T20:49:25.131Z,8.23
2019-01-13T20:51:56.611Z,12.17
2019-01-13T20:54:29.514Z,13.37
2019-01-13T20:57:00.952Z,11.60
2019-01-13T20:59:32.452Z,10.10
2019-01-13T21:02:03.946Z,8.80
2019-01-13T21:04:35.568Z,13.30
2019-01-13T21:07:07.797Z,8.67
2019-01-13T21:09:39.302Z,11.83
2019-01-13T21:12:11.266Z,12.93
2019-01-13T21:14:43.588Z,12.17
2019-01-13T21:17:15.123Z,12.37
2019-01-13T21:19:47.759Z,9.40
2019-01-13T21:22:19.580Z,13.07
2019-01-13T21:24:51.519Z,10.60
2019-01-13T21:27:23.166Z,11.33
2019-01-13T21:30:01.203Z,13.80
2019-01-13T21:32:29.074Z,12.03
2019-01-13T21:35:01.347Z,12.10
2019-01-13T21:37:34.040Z,11.77
2019-01-13T21:40:07.097Z,14.57
2019-01-13T21:42:38.573Z,12.03
2019-01-13T21:45:12.362Z,17.03
2019-01-13T21:47:44.371Z,17.87
2019-01-13T21:50:17.980Z,9.43
2019-01-13T21:52:49.520Z,13.47
2019-01-13T21:55:21.497Z,18.10
2019-01-13T21:57:53.466Z,15.00
2019-01-13T22:00:26.470Z,12.33
2019-01-13T22:02:57.986Z,14.90
2019-01-13T22:05:29.546Z,11.87
2019-01-13T22:08:02.167Z,18.63
2019-01-13T22:10:33.649Z,16.43
2019-01-13T22:13:05.464Z,10.97
2019-01-13T22:15:36.941Z,9.77
2019-01-13T22:18:09.466Z,14.87
2019-01-13T22:20:41.195Z,17.87
2019-01-13T22:23:13.334Z,13.50
2019-01-13T22:25:45.608Z,14.63
2019-01-13T22:28:17.015Z,15.03
2019-01-13T22:30:48.628Z,10.20
2019-01-13T22:33:20.693Z,12.10
2019-01-13T22:35:52.540Z,11.50
2019-01-13T22:38:23.989Z,10.20
2019-01-13T22:40:55.373Z,12.10
2019-01-13T22:43:27.047Z,15.37
2019-01-13T22:45:58.206Z,16.27
2019-01-13T22:48:30.032Z,13.07
2019-01-13T22:51:01.399Z,11.00
2019-01-13T22:53:33.458Z,9.57
2019-01-13T22:56:05.154Z,14.23
2019-01-13T22:58:37.212Z,9.47
2019-01-13T23:01:33.459Z,11.53
2019-01-13T23:04:09.756Z,9.93
2019-01-13T23:06:41.260Z,8.93
2019-01-13T23:09:14.231Z,10.53
2019-01-13T23:11:45.754Z,17.27
2019-01-13T23:14:17.474Z,10.57
2019-01-13T23:16:48.843Z,8.73
2019-01-13T23:19:20.780Z,8.23
2019-01-13T23:21:52.607Z,9.47
2019-01-13T23:24:24.422Z,8.07
2019-01-13T23:26:56.371Z,6.83
2019-01-13T23:29:27.793Z,7.07
2019-01-13T23:31:59.163Z,9.37
2019-01-13T23:34:30.700Z,8.33
2019-01-13T23:37:03.379Z,11.97
2019-01-13T23:39:35.060Z,6.93
2019-01-13T23:42:06.856Z,5.87
2019-01-13T23:44:38.058Z,6.40
2019-01-13T23:47:09.700Z,9.43
2019-01-13T23:49:41.498Z,9.33
2019-01-13T23:52:13.888Z,8.33
2019-01-13T23:54:45.948Z,9.23
2019-01-13T23:57:17.548Z,5.90
2019-01-13T23:59:49.232Z,5.10
